createdAt,value
2023-04-05T00:02:45.329Z,29.30
2023-04-05T00:05:54.768Z,29.30
2023-04-05T00:09:04.628Z,29.30
2023-04-05T00:12:12.699Z,29.30
2023-04-05T00:15:20.707Z,29.30
2023-04-05T00:18:34.040Z,29.30
2023-04-05T00:21:41.855Z,29.30
2023-04-05T00:24:51.060Z,29.30
2023-04-05T00:27:59.052Z,29.30
2023-04-05T00:31:07.119Z,29.30
2023-04-05T00:34:15.402Z,29.30
2023-04-05T00:37:23.424Z,29.30
2023-04-05T00:40:32.910Z,29.30
2023-04-05T00:43:41.157Z,29.30
2023-04-05T00:46:49.141Z,29.30
2023-04-05T00:49:57.222Z,29.30
2023-04-05T00:53:05.394Z,29.40
2023-04-05T00:56:14.915Z,29.40
2023-04-05T00:59:22.833Z,29.40
2023-04-05T01:02:33.782Z,29.40
2023-04-05T01:05:43.104Z,29.40
2023-04-05T01:08:56.224Z,29.30
2023-04-05T01:12:07.556Z,29.30
2023-04-05T01:15:15.877Z,29.30
2023-04-05T01:18:24.425Z,29.20
2023-04-05T01:21:47.750Z,29.20
2023-04-05T01:25:10.991Z,29.20
2023-04-05T01:28:42.568Z,29.20
2023-04-05T01:31:54.095Z,29.20
2023-04-05T01:35:06.394Z,29.70
2023-04-05T01:38:16.866Z,29.70
2023-04-05T01:41:27.142Z,29.20
2023-04-05T01:44:35.312Z,29.20
2023-04-05T01:47:44.620Z,29.20
2023-04-05T01:50:53.075Z,29.20
2023-04-05T01:54:01.212Z,29.20
2023-04-05T01:57:09.454Z,29.20
2023-04-05T02:00:17.919Z,29.20
2023-04-05T02:03:28.199Z,29.20
2023-04-05T02:06:36.340Z,29.20
2023-04-05T02:09:44.358Z,29.20
2023-04-05T02:12:53.837Z,29.20
2023-04-05T02:16:01.490Z,29.20
2023-04-05T02:19:13.126Z,29.20
2023-04-05T02:22:21.450Z,29.20
2023-04-05T02:25:29.366Z,29.20
2023-04-05T02:28:37.361Z,29.20
2023-04-05T02:31:45.272Z,29.20
2023-04-05T02:34:56.392Z,29.20
2023-04-05T02:38:04.776Z,29.20
2023-04-05T02:41:15.343Z,29.20
2023-04-05T02:44:23.189Z,29.20
2023-04-05T02:47:33.672Z,29.20
2023-04-05T02:50:43.893Z,29.20
2023-04-05T02:53:53.001Z,29.20
2023-04-05T02:57:02.339Z,29.20
2023-04-05T03:00:16.321Z,29.30
2023-04-05T03:03:24.547Z,29.20
2023-04-05T03:06:34.008Z,29.20
2023-04-05T03:09:44.590Z,29.30
2023-04-05T03:12:52.669Z,29.20
2023-04-05T03:16:04.820Z,29.20
2023-04-05T03:19:13.240Z,29.20
2023-04-05T03:22:27.235Z,29.20
2023-04-05T03:25:37.407Z,29.20
2023-04-05T03:28:46.893Z,29.20
2023-04-05T03:31:55.767Z,29.20
2023-04-05T03:35:06.103Z,29.20
2023-04-05T03:38:17.268Z,29.20
2023-04-05T03:41:35.890Z,29.20
2023-04-05T03:44:44.003Z,29.20
2023-04-05T03:47:52.182Z,29.30
2023-04-05T03:50:59.840Z,29.30
2023-04-05T03:54:09.410Z,29.20
2023-04-05T03:57:19.787Z,29.20
2023-04-05T04:00:30.313Z,29.20
2023-04-05T04:04:01.238Z,29.20
2023-04-05T04:07:10.570Z,29.70
2023-04-05T04:10:19.969Z,29.20
2023-04-05T04:13:32.803Z,29.20
2023-04-05T04:17:09.489Z,29.20
2023-04-05T04:20:49.470Z,29.20
2023-04-05T04:24:18.597Z,29.20
2023-04-05T04:27:48.066Z,29.30
2023-04-05T04:31:14.681Z,29.20
2023-04-05T04:34:37.656Z,29.20
2023-04-05T04:38:10.734Z,29.20
2023-04-05T04:41:22.818Z,29.20
2023-04-05T04:44:32.889Z,29.20
2023-04-05T04:48:01.174Z,29.20
2023-04-05T04:51:38.999Z,29.30
2023-04-05T04:54:47.238Z,29.20
2023-04-05T04:57:55.059Z,29.20
2023-04-05T05:01:08.738Z,29.20
2023-04-05T05:04:16.674Z,29.20
2023-04-05T05:07:26.139Z,29.20
2023-04-05T05:10:34.107Z,29.20
2023-04-05T05:13:46.909Z,29.20
2023-04-05T05:17:05.207Z,29.20
2023-04-05T05:20:13.563Z,29.10
2023-04-05T05:23:26.597Z,29.60
2023-04-05T05:26:34.622Z,29.00
2023-04-05T05:29:42.448Z,29.00
2023-04-05T05:32:52.857Z,29.00
2023-04-05T05:36:00.960Z,29.00
2023-04-05T05:39:09.059Z,28.90
2023-04-05T05:42:17.218Z,28.90
2023-04-05T05:45:24.984Z,28.80
2023-04-05T05:48:34.395Z,28.70
2023-04-05T05:51:42.339Z,28.60
2023-04-05T05:54:50.524Z,28.50
2023-04-05T05:57:58.510Z,28.40
2023-04-05T06:01:07.545Z,28.40
2023-04-05T06:04:16.974Z,28.50
2023-04-05T06:07:24.935Z,28.60
2023-04-05T06:10:33.304Z,28.60
2023-04-05T06:13:41.470Z,28.60
2023-04-05T06:16:49.742Z,28.70
2023-04-05T06:19:58.979Z,28.70
2023-04-05T06:23:06.952Z,28.70
2023-04-05T06:26:18.801Z,28.80
2023-04-05T06:29:27.030Z,28.80
2023-04-05T06:32:35.148Z,29.30
2023-04-05T06:35:44.603Z,28.80
2023-04-05T06:38:53.008Z,28.90
2023-04-05T06:42:01.363Z,28.90
2023-04-05T06:45:20.090Z,28.90
2023-04-05T06:48:29.369Z,28.90
2023-04-05T06:51:38.815Z,28.90
2023-04-05T06:54:46.819Z,28.90
2023-04-05T06:57:55.712Z,28.90
2023-04-05T07:01:03.982Z,29.00
2023-04-05T07:04:12.409Z,28.90
2023-04-05T07:07:22.124Z,28.90
2023-04-05T07:10:30.174Z,28.90
2023-04-05T07:13:37.857Z,28.90
2023-04-05T07:16:46.965Z,28.90
2023-04-05T07:19:56.626Z,28.90
2023-04-05T07:23:07.254Z,29.00
2023-04-05T07:26:15.701Z,29.00
2023-04-05T07:29:23.557Z,29.00
2023-04-05T07:32:31.809Z,29.00
2023-04-05T07:35:39.982Z,29.00
2023-04-05T07:38:49.431Z,29.00
2023-04-05T07:41:57.791Z,29.00
2023-04-05T07:45:07.065Z,29.00
2023-04-05T07:48:15.485Z,29.00
2023-04-05T07:51:23.336Z,29.00
2023-04-05T07:54:34.055Z,29.50
2023-04-05T07:57:41.860Z,29.00
2023-04-05T08:00:49.841Z,29.00
2023-04-05T08:03:58.264Z,29.00
2023-04-05T08:07:06.027Z,29.00
2023-04-05T08:10:15.600Z,29.00
2023-04-05T08:13:23.937Z,29.00
2023-04-05T08:16:31.902Z,29.00
2023-04-05T08:19:39.761Z,29.00
2023-04-05T08:22:47.956Z,29.00
2023-04-05T08:25:57.145Z,29.00
2023-04-05T08:29:05.142Z,29.00
2023-04-05T08:32:13.246Z,29.00
2023-04-05T08:35:21.223Z,29.00
2023-04-05T08:38:29.427Z,29.00
2023-04-05T08:41:43.506Z,29.00
2023-04-05T08:44:52.715Z,29.00
2023-04-05T08:48:00.698Z,29.10
2023-04-05T08:51:09.376Z,29.00
2023-04-05T08:54:17.773Z,29.00
2023-04-05T08:57:27.973Z,29.10
2023-04-05T09:00:35.843Z,29.00
2023-04-05T09:03:44.118Z,29.00
2023-04-05T09:06:52.666Z,29.00
2023-04-05T09:10:00.604Z,29.10
2023-04-05T09:13:10.279Z,29.10
2023-04-05T09:16:18.043Z,29.00
2023-04-05T09:19:26.113Z,29.00
2023-04-05T09:22:34.088Z,29.00
2023-04-05T09:25:42.541Z,29.10
2023-04-05T09:28:51.666Z,29.10
2023-04-05T09:31:59.684Z,29.50
2023-04-05T09:35:08.193Z,29.00
2023-04-05T09:38:16.890Z,29.00
2023-04-05T09:41:24.996Z,29.00
2023-04-05T09:44:55.825Z,29.00
2023-04-05T09:48:04.079Z,29.10
2023-04-05T09:51:13.177Z,29.00
2023-04-05T09:54:21.417Z,29.00
2023-04-05T09:57:29.637Z,29.00
2023-04-05T10:00:39.972Z,29.00
2023-04-05T10:03:48.986Z,29.00
2023-04-05T10:06:57.177Z,29.00
2023-04-05T10:10:05.701Z,29.00
2023-04-05T10:13:14.103Z,29.00
2023-04-05T10:16:23.700Z,29.00
2023-04-05T10:19:35.779Z,29.00
2023-04-05T10:22:50.450Z,29.00
2023-04-05T10:26:01.818Z,29.00
2023-04-05T10:29:14.514Z,29.00
2023-04-05T10:32:28.488Z,29.10
2023-04-05T10:35:41.116Z,29.00
2023-04-05T10:38:54.079Z,29.00
2023-04-05T10:42:02.994Z,29.00
2023-04-05T10:45:12.155Z,29.20
2023-04-05T10:48:26.725Z,29.10
2023-04-05T10:51:35.250Z,29.10
2023-04-05T10:54:43.174Z,29.10
2023-04-05T10:57:51.153Z,29.10
2023-04-05T11:00:59.343Z,29.10
2023-04-05T11:04:14.825Z,29.10
2023-04-05T11:07:23.080Z,29.10
2023-04-05T11:10:31.141Z,29.10
2023-04-05T11:13:49.411Z,29.10
2023-04-05T11:16:58.859Z,29.10
2023-04-05T11:20:13.225Z,29.10
2023-04-05T11:23:21.710Z,29.00
2023-04-05T11:26:32.979Z,29.00
2023-04-05T11:29:48.659Z,29.00
2023-04-05T11:32:56.867Z,29.00
2023-04-05T11:36:06.921Z,29.00
2023-04-05T11:39:33.167Z,29.00
2023-04-05T11:42:41.262Z,29.00
2023-04-05T11:45:49.388Z,29.00
2023-04-05T11:48:57.589Z,29.00
2023-04-05T11:52:14.015Z,29.00
2023-04-05T11:55:27.861Z,29.00
2023-04-05T11:58:35.585Z,29.00
2023-04-05T12:01:45.829Z,29.00
2023-04-05T12:04:57.612Z,29.00
2023-04-05T12:08:07.491Z,29.00
2023-04-05T12:11:15.430Z,29.00
2023-04-05T12:14:24.800Z,29.00
2023-04-05T12:17:43.446Z,29.00
2023-04-05T12:20:51.515Z,29.10
2023-04-05T12:24:01.159Z,29.10
2023-04-05T12:27:09.084Z,29.10
2023-04-05T12:30:17.806Z,29.20
2023-04-05T12:33:29.307Z,29.10
2023-04-05T12:36:37.409Z,29.20
2023-04-05T12:39:46.985Z,29.20
2023-04-05T12:42:54.709Z,29.20
2023-04-05T12:46:02.851Z,29.20
2023-04-05T12:49:12.528Z,29.20
2023-04-05T12:52:20.953Z,29.20
2023-04-05T12:55:30.558Z,29.20
2023-04-05T12:58:39.979Z,29.20
2023-04-05T13:01:47.886Z,29.20
2023-04-05T13:04:55.801Z,29.30
2023-04-05T13:08:03.834Z,29.30
2023-04-05T13:11:12.895Z,29.30
2023-04-05T13:14:20.855Z,29.30
2023-04-05T13:17:28.914Z,29.40
2023-04-05T13:20:36.991Z,29.40
2023-04-05T13:23:44.750Z,29.40
2023-04-05T13:26:54.121Z,29.40
2023-04-05T13:30:02.254Z,29.40
2023-04-05T13:33:10.164Z,29.40
2023-04-05T13:36:18.139Z,29.40
2023-04-05T13:39:26.341Z,29.40
2023-04-05T13:42:35.927Z,29.40
2023-04-05T13:45:44.186Z,29.40
2023-04-05T13:48:52.502Z,29.40
2023-04-05T13:52:00.509Z,29.50
2023-04-05T13:55:09.108Z,29.50
2023-04-05T13:58:18.384Z,29.40
2023-04-05T14:01:26.372Z,29.50
2023-04-05T14:04:34.239Z,29.50
2023-04-05T14:07:42.401Z,29.40
2023-04-05T14:10:50.356Z,29.40
2023-04-05T14:13:59.580Z,29.40
2023-04-05T14:17:08.072Z,29.40
2023-04-05T14:20:16.289Z,29.40
2023-04-05T14:23:26.887Z,29.40
2023-04-05T14:26:35.349Z,29.40
2023-04-05T14:29:45.637Z,29.60
2023-04-05T14:32:53.977Z,29.40
2023-04-05T14:36:02.222Z,29.50
2023-04-05T14:39:10.557Z,29.60
2023-04-05T14:42:18.592Z,29.60
2023-04-05T14:45:28.365Z,29.60
2023-04-05T14:48:37.417Z,29.70
2023-04-05T14:51:45.392Z,29.60
2023-04-05T14:54:53.833Z,29.60
2023-04-05T14:58:01.775Z,29.70
2023-04-05T15:01:11.365Z,29.70
2023-04-05T15:04:19.671Z,29.70
2023-04-05T15:07:27.607Z,29.70
2023-04-05T15:10:35.830Z,29.70
2023-04-05T15:13:44.117Z,29.70
2023-04-05T15:16:53.343Z,29.70
2023-04-05T15:20:01.561Z,29.70
2023-04-05T15:23:09.818Z,29.70
2023-04-05T15:26:18.076Z,29.70
2023-04-05T15:29:26.113Z,29.70
2023-04-05T15:32:35.605Z,29.70
2023-04-05T15:35:43.825Z,29.70
2023-04-05T15:38:51.788Z,29.70
2023-04-05T15:42:01.562Z,29.70
2023-04-05T15:45:10.662Z,29.80
2023-04-05T15:48:20.018Z,29.70
2023-04-05T15:51:28.377Z,29.70
2023-04-05T15:54:36.514Z,29.70
2023-04-05T15:57:44.918Z,29.70
2023-04-05T16:00:53.279Z,29.70
2023-04-05T16:04:04.116Z,29.80
2023-04-05T16:07:12.791Z,29.80
2023-04-05T16:10:20.792Z,29.80
2023-04-05T16:13:29.160Z,29.80
2023-04-05T16:16:46.012Z,29.80
2023-04-05T16:20:02.195Z,29.80
2023-04-05T16:23:10.516Z,29.80
2023-04-05T16:26:18.725Z,29.80
2023-04-05T16:29:27.246Z,29.70
2023-04-05T16:32:35.345Z,29.70
2023-04-05T16:35:44.676Z,29.70
2023-04-05T16:38:52.745Z,29.70
2023-04-05T16:42:01.079Z,29.70
2023-04-05T16:45:10.815Z,29.70
2023-04-05T16:48:19.049Z,29.70
2023-04-05T16:51:28.717Z,29.70
2023-04-05T16:54:36.698Z,29.70
2023-04-05T16:57:45.258Z,29.70
2023-04-05T17:00:58.596Z,29.70
2023-04-05T17:04:06.697Z,29.70
2023-04-05T17:07:16.256Z,29.70
2023-04-05T17:10:24.234Z,29.70
2023-04-05T17:13:32.683Z,29.70
2023-04-05T17:16:40.931Z,30.00
2023-04-05T17:19:48.964Z,29.60
2023-04-05T17:22:59.535Z,29.60
2023-04-05T17:26:07.492Z,29.60
2023-04-05T17:29:17.491Z,29.60
2023-04-05T17:32:26.654Z,29.60
2023-04-05T17:35:34.790Z,29.60
2023-04-05T17:38:44.371Z,29.60
2023-04-05T17:41:54.671Z,29.60
2023-04-05T17:45:03.547Z,29.60
2023-04-05T17:48:11.964Z,29.60
2023-04-05T17:51:20.674Z,29.60
2023-04-05T17:54:30.860Z,29.60
2023-04-05T17:57:38.879Z,29.60
2023-04-05T18:00:47.096Z,29.60
2023-04-05T18:03:55.348Z,30.00
2023-04-05T18:07:03.270Z,29.60
2023-04-05T18:10:13.441Z,29.60
2023-04-05T18:13:21.414Z,29.70
2023-04-05T18:16:29.879Z,29.70
2023-04-05T18:19:38.280Z,29.70
2023-04-05T18:22:46.444Z,29.70
2023-04-05T18:25:56.306Z,29.60
2023-04-05T18:29:05.215Z,29.60
2023-04-05T18:32:13.537Z,29.70
2023-04-05T18:35:22.019Z,29.70
2023-04-05T18:38:30.469Z,29.70
2023-04-05T18:41:39.810Z,29.70
2023-04-05T18:44:49.255Z,29.70
2023-04-05T18:47:57.270Z,29.70
2023-04-05T18:51:06.239Z,29.80
2023-04-05T18:54:14.240Z,29.70
2023-04-05T18:57:24.033Z,29.80
2023-04-05T19:00:32.259Z,29.80
2023-04-05T19:03:40.523Z,29.80
2023-04-05T19:06:48.834Z,29.90
2023-04-05T19:09:57.091Z,29.90
2023-04-05T19:13:06.751Z,29.90
2023-04-05T19:16:17.253Z,29.90
2023-04-05T19:19:25.509Z,29.90
2023-04-05T19:22:33.329Z,29.90
2023-04-05T19:25:41.663Z,29.90
2023-04-05T19:28:51.226Z,29.90
2023-04-05T19:31:59.100Z,29.90
2023-04-05T19:35:08.936Z,29.90
2023-04-05T19:38:16.867Z,29.90
2023-04-05T19:41:26.035Z,29.90
2023-04-05T19:44:44.905Z,29.90
2023-04-05T19:47:53.693Z,29.90
2023-04-05T19:51:02.085Z,29.90
2023-04-05T19:54:12.376Z,29.90
2023-04-05T19:57:20.464Z,29.90
2023-04-05T20:00:37.244Z,29.90
2023-04-05T20:03:45.485Z,29.90
2023-04-05T20:06:55.163Z,29.90
2023-04-05T20:10:03.096Z,29.90
2023-04-05T20:13:11.387Z,29.90
2023-04-05T20:16:25.552Z,29.90
2023-04-05T20:19:33.763Z,30.00
2023-04-05T20:22:41.680Z,29.90
2023-04-05T20:25:50.542Z,29.90
2023-04-05T20:28:58.944Z,29.90
2023-04-05T20:32:08.723Z,29.90
2023-04-05T20:35:31.779Z,29.90
2023-04-05T20:38:40.295Z,29.80
2023-04-05T20:41:48.491Z,29.90
2023-04-05T20:44:57.217Z,29.80
2023-04-05T20:48:07.261Z,29.80
2023-04-05T20:51:15.652Z,29.80
2023-04-05T20:54:24.182Z,29.90
2023-04-05T20:57:32.130Z,29.80
2023-04-05T21:00:41.570Z,29.90
2023-04-05T21:03:51.122Z,29.90
2023-04-05T21:06:59.162Z,29.90
2023-04-05T21:10:08.042Z,29.90
2023-04-05T21:13:16.413Z,29.90
2023-04-05T21:16:24.521Z,29.90
2023-04-05T21:19:33.911Z,29.90
2023-04-05T21:22:42.419Z,29.90
2023-04-05T21:25:50.694Z,29.90
2023-04-05T21:28:58.751Z,29.90
2023-04-05T21:32:07.126Z,29.90
2023-04-05T21:35:16.884Z,29.90
2023-04-05T21:38:25.087Z,29.90
2023-04-05T21:41:33.301Z,30.00
2023-04-05T21:44:41.221Z,30.00
2023-04-05T21:47:49.652Z,30.00
2023-04-05T21:50:59.196Z,30.00
2023-04-05T21:54:07.656Z,30.00
2023-04-05T21:57:15.757Z,30.00
2023-04-05T22:00:24.057Z,30.00
2023-04-05T22:03:31.963Z,30.00
2023-04-05T22:06:41.649Z,30.00
2023-04-05T22:09:49.948Z,30.00
2023-04-05T22:12:57.899Z,30.00
2023-04-05T22:16:06.170Z,30.00
2023-04-05T22:19:14.507Z,30.00
2023-04-05T22:22:24.035Z,30.00
2023-04-05T22:25:31.881Z,30.00
2023-04-05T22:28:39.916Z,30.00
2023-04-05T22:31:48.619Z,30.00
2023-04-05T22:34:56.869Z,30.00
2023-04-05T22:38:06.551Z,30.00
2023-04-05T22:41:14.694Z,30.00
2023-04-05T22:44:24.180Z,30.00
2023-04-05T22:47:32.134Z,30.00
2023-04-05T22:50:40.470Z,30.00
2023-04-05T22:53:49.791Z,30.00
2023-04-05T22:56:58.088Z,30.00
2023-04-05T23:00:07.260Z,30.00
2023-04-05T23:03:15.372Z,30.00
2023-04-05T23:06:23.617Z,30.00
2023-04-05T23:09:33.236Z,30.10
2023-04-05T23:12:41.074Z,30.00
2023-04-05T23:15:49.105Z,30.10
2023-04-05T23:18:56.940Z,30.00
2023-04-05T23:22:05.147Z,30.00
2023-04-05T23:25:14.688Z,30.10
2023-04-05T23:28:22.581Z,30.10
2023-04-05T23:31:30.776Z,30.10
2023-04-05T23:34:38.820Z,30.00
2023-04-05T23:37:47.069Z,30.00
2023-04-05T23:40:56.730Z,30.00
2023-04-05T23:44:04.896Z,30.00
2023-04-05T23:47:13.234Z,30.10
2023-04-05T23:50:21.594Z,30.10
2023-04-05T23:53:30.079Z,30.10
2023-04-05T23:56:39.441Z,30.00
2023-04-05T23:59:47.344Z,30.00
